ENBV Airport Information

Runway Information
Runway 06 Length 3372 ft width 98 ft Elevation 42 ft Threshold N/A Heading 62
Runway 24 Length 3372 ft Width 98 ft Elevation 28 ft Threshold N/A Heading 242
Airport Frequencies
Airport Navaids
Type NDB Name Berlevag Frequency 399 KHZ
Airport Weather Information & NOTAM
ADDS - METARS form results

(1710 UTC 01 December 2022)
Data provider http://aviationweather.gov/metar/data/
 
METAR text: ENBV 011650Z 26011KT 9999 SCT015 OVC075 M01/M03 Q1036
Conditions at: ENBV (BERLEVAG , NO) observed 1650 UTC 01 December 2022
Temperature: -1.0°C (30°F)
Dewpoint: -3.0°C (27°F) [RH = 86%]
Pressure (altimeter): 30.59 inches Hg (1036.0 mb)
Winds: from the W (260 degrees) at 13 MPH (11 knots; 5.7 m/s)
Visibility: 6 or more miles (10+ km)
Ceiling: 7500 feet AGL
Clouds: scattered clouds at 1500 feet AGL
overcast cloud deck at 7500 feet AGL
Weather: no significant weather observed at this time

METAR text: ENBV 011620Z 26009KT 9999 SCT015 BKN075 M01/M03 Q1036
Conditions at: ENBV (BERLEVAG , NO) observed 1620 UTC 01 December 2022
Temperature: -1.0°C (30°F)
Dewpoint: -3.0°C (27°F) [RH = 86%]
Pressure (altimeter): 30.59 inches Hg (1036.0 mb)
Winds: from the W (260 degrees) at 10 MPH (9 knots; 4.6 m/s)
Visibility: 6 or more miles (10+ km)
Ceiling: 7500 feet AGL
Clouds: scattered clouds at 1500 feet AGL
broken clouds at 7500 feet AGL
Weather: no significant weather observed at this time

Forecast for: ENBV (BERLEVAG , NO)
Text: TAF ENBV 011400Z 0115/0123 22008KT 9999 SCT012 BKN020
Forecast period: 1500 to 2300 UTC 01 December 2022
Forecast type: FROM: standard forecast or significant change
Winds: from the SW (220 degrees) at 9 MPH (8 knots; 4.1 m/s)
Visibility: 6 or more miles (10+ km)
Ceiling: 2000 feet AGL
Clouds: scattered clouds at 1200 feet AGL
broken clouds at 2000 feet AGL
Weather: no significant weather forecast for this period
Text: TEMPO 0115/0123 BKN012
Forecast period: 1500 to 2300 UTC 01 December 2022
Forecast type: TEMPORARY: The following changes expected for less than half the time period
Visibility: missing
Ceiling: 1200 feet AGL
Clouds: broken clouds at 1200 feet AGL
Weather: no significant weather forecast for this period